createdAt,value
2023-03-11T00:01:27.744Z,7.32
2023-03-11T00:03:15.342Z,7.04
2023-03-11T00:06:49.852Z,7.60
2023-03-11T00:08:31.469Z,10.93
2023-03-11T00:10:03.037Z,7.12
2023-03-11T00:11:34.230Z,7.60
2023-03-11T00:13:15.749Z,5.29
2023-03-11T00:14:47.108Z,5.46
2023-03-11T00:16:18.755Z,4.23
2023-03-11T00:17:50.486Z,3.97
2023-03-11T00:19:21.832Z,5.81
2023-03-11T00:20:53.197Z,7.17
2023-03-11T00:22:24.740Z,3.81
2023-03-11T00:23:56.323Z,3.57
2023-03-11T00:25:37.795Z,5.04
2023-03-11T00:27:08.968Z,4.43
2023-03-11T00:28:40.443Z,3.49
2023-03-11T00:30:12.013Z,4.27
2023-03-11T00:31:43.181Z,3.97
2023-03-11T00:33:14.376Z,4.32
2023-03-11T00:34:46.127Z,5.61
2023-03-11T00:36:17.334Z,4.26
2023-03-11T00:37:48.998Z,4.33
2023-03-11T00:39:20.470Z,4.21
2023-03-11T00:40:51.956Z,3.94
2023-03-11T00:42:23.121Z,3.32
2023-03-11T00:43:54.506Z,5.49
2023-03-11T00:45:25.762Z,5.59
2023-03-11T00:46:57.047Z,3.23
2023-03-11T00:48:28.548Z,5.21
2023-03-11T00:49:59.919Z,6.54
2023-03-11T00:51:33.196Z,6.21
2023-03-11T00:53:05.434Z,5.21
2023-03-11T00:54:37.033Z,4.23
2023-03-11T00:56:08.277Z,5.83
2023-03-11T00:57:39.692Z,4.17
2023-03-11T00:59:11.249Z,7.15
2023-03-11T01:00:42.746Z,6.97
2023-03-11T01:02:14.285Z,4.58
2023-03-11T01:03:45.814Z,5.92
2023-03-11T01:05:17.553Z,6.61
2023-03-11T01:06:49.134Z,6.08
2023-03-11T01:08:20.312Z,6.75
2023-03-11T01:09:51.792Z,4.37
2023-03-11T01:11:23.085Z,6.64
2023-03-11T01:12:54.329Z,7.74
2023-03-11T01:14:25.608Z,6.30
2023-03-11T01:15:57.079Z,7.99
2023-03-11T01:17:28.385Z,6.72
2023-03-11T01:18:59.942Z,8.42
2023-03-11T01:20:31.503Z,5.85
2023-03-11T01:22:02.890Z,6.29
2023-03-11T01:23:34.237Z,8.16
2023-03-11T01:25:05.490Z,7.40
2023-03-11T01:26:36.799Z,7.49
2023-03-11T01:28:07.937Z,7.95
2023-03-11T01:29:39.349Z,6.29
2023-03-11T01:31:10.744Z,6.58
2023-03-11T01:32:42.254Z,7.64
2023-03-11T01:34:13.564Z,5.91
2023-03-11T01:35:45.809Z,7.44
2023-03-11T01:37:17.187Z,8.72
2023-03-11T01:38:48.637Z,6.00
2023-03-11T01:40:20.174Z,7.23
2023-03-11T01:41:51.417Z,6.05
2023-03-11T01:43:22.627Z,6.24
2023-03-11T01:44:53.773Z,9.08
2023-03-11T01:46:25.450Z,5.46
2023-03-11T01:47:56.926Z,7.68
2023-03-11T01:49:28.333Z,9.12
2023-03-11T01:50:59.580Z,8.24
2023-03-11T01:52:30.932Z,5.61
2023-03-11T01:54:02.083Z,6.26
2023-03-11T01:55:33.391Z,7.87
2023-03-11T01:57:04.759Z,8.82
2023-03-11T01:58:36.335Z,9.54
2023-03-11T02:00:07.801Z,7.12
2023-03-11T02:01:49.167Z,7.56
2023-03-11T02:03:44.019Z,7.49
2023-03-11T02:05:16.982Z,6.94
2023-03-11T02:06:48.692Z,11.43
2023-03-11T02:08:20.096Z,9.99
2023-03-11T02:09:51.453Z,9.52
2023-03-11T02:11:47.449Z,10.40
2023-03-11T02:13:19.098Z,10.33
2023-03-11T02:14:50.793Z,9.18
2023-03-11T02:16:22.158Z,9.18
2023-03-11T02:17:53.512Z,9.35
2023-03-11T02:19:24.983Z,10.58
2023-03-11T02:20:56.374Z,8.41
2023-03-11T02:22:27.732Z,10.50
2023-03-11T02:23:59.209Z,10.24
2023-03-11T02:25:30.878Z,6.78
2023-03-11T02:27:02.557Z,7.06
2023-03-11T02:28:33.817Z,8.66
2023-03-11T02:30:05.215Z,8.42
2023-03-11T02:31:36.482Z,6.99
2023-03-11T02:33:07.796Z,6.89
2023-03-11T02:34:39.097Z,6.75
2023-03-11T02:36:10.737Z,6.26
2023-03-11T02:37:42.255Z,8.28
2023-03-11T02:39:13.601Z,9.14
2023-03-11T02:40:45.183Z,8.69
2023-03-11T02:42:16.486Z,8.32
2023-03-11T02:43:47.757Z,8.76
2023-03-11T02:45:19.363Z,7.31
2023-03-11T02:46:51.069Z,9.83
2023-03-11T02:48:22.574Z,10.40
2023-03-11T02:49:54.007Z,9.24
2023-03-11T02:51:25.154Z,6.87
2023-03-11T02:52:56.759Z,6.83
2023-03-11T02:54:34.314Z,10.45
2023-03-11T02:56:06.004Z,7.42
2023-03-11T02:57:37.373Z,7.27
2023-03-11T02:59:08.635Z,8.28
2023-03-11T03:00:48.311Z,8.06
2023-03-11T03:02:19.745Z,6.53
2023-03-11T03:03:51.329Z,6.30
2023-03-11T03:05:22.794Z,10.39
2023-03-11T03:06:54.235Z,8.49
2023-03-11T03:08:25.808Z,10.82
2023-03-11T03:09:57.223Z,10.03
2023-03-11T03:11:28.767Z,9.00
2023-03-11T03:13:00.164Z,8.65
2023-03-11T03:14:31.606Z,9.19
2023-03-11T03:16:03.046Z,13.16
2023-03-11T03:17:34.480Z,10.28
2023-03-11T03:19:05.710Z,9.41
2023-03-11T03:20:37.078Z,11.60
2023-03-11T03:22:08.658Z,9.48
2023-03-11T03:23:40.018Z,11.14
2023-03-11T03:25:11.478Z,10.31
2023-03-11T03:26:42.681Z,9.11
2023-03-11T03:28:14.021Z,10.26
2023-03-11T03:29:45.758Z,11.47
2023-03-11T03:31:17.552Z,11.53
2023-03-11T03:32:50.249Z,13.24
2023-03-11T03:34:21.684Z,11.86
2023-03-11T03:35:53.175Z,9.61
2023-03-11T03:37:24.321Z,10.68
2023-03-11T03:38:55.907Z,10.28
2023-03-11T03:40:27.313Z,12.31
2023-03-11T03:41:59.723Z,11.92
2023-03-11T03:43:30.994Z,8.79
2023-03-11T03:45:02.272Z,9.96
2023-03-11T03:46:33.772Z,11.01
2023-03-11T03:48:05.216Z,15.83
2023-03-11T03:49:36.626Z,15.11
2023-03-11T03:51:07.998Z,14.81
2023-03-11T03:52:39.494Z,13.04
2023-03-11T03:54:10.756Z,14.58
2023-03-11T03:55:41.969Z,13.84
2023-03-11T03:57:13.236Z,12.32
2023-03-11T03:58:44.569Z,8.56
2023-03-11T04:00:16.169Z,11.22
2023-03-11T04:01:47.788Z,10.94
2023-03-11T04:03:19.096Z,10.63
2023-03-11T04:04:50.343Z,12.50
2023-03-11T04:06:21.605Z,14.03
2023-03-11T04:07:52.877Z,14.78
2023-03-11T04:09:24.106Z,12.14
2023-03-11T04:11:05.456Z,16.15
2023-03-11T04:12:37.185Z,14.67
2023-03-11T04:14:08.490Z,12.87
2023-03-11T04:15:39.668Z,14.25
2023-03-11T04:17:10.971Z,13.55
2023-03-11T04:18:42.218Z,11.58
2023-03-11T04:20:13.464Z,11.07
2023-03-11T04:21:44.784Z,11.25
2023-03-11T04:23:16.117Z,11.96
2023-03-11T04:24:47.452Z,11.23
2023-03-11T04:26:18.756Z,11.35
2023-03-11T04:27:50.355Z,12.98
2023-03-11T04:29:21.511Z,12.31
2023-03-11T04:30:53.286Z,11.77
2023-03-11T04:32:24.710Z,9.57
2023-03-11T04:33:56.253Z,13.03
2023-03-11T04:35:27.672Z,11.39
2023-03-11T04:36:59.019Z,12.25
2023-03-11T04:38:30.195Z,13.86
2023-03-11T04:40:01.401Z,12.55
2023-03-11T04:41:32.673Z,12.60
2023-03-11T04:43:04.248Z,13.89
2023-03-11T04:44:35.435Z,11.88
2023-03-11T04:46:06.856Z,12.51
2023-03-11T04:47:38.446Z,13.09
2023-03-11T04:49:09.646Z,11.92
2023-03-11T04:50:40.896Z,11.26
2023-03-11T04:52:12.452Z,11.12
2023-03-11T04:53:43.662Z,11.03
2023-03-11T04:55:14.855Z,14.32
2023-03-11T04:56:46.123Z,11.38
2023-03-11T04:58:17.721Z,11.97
2023-03-11T04:59:49.050Z,10.80
2023-03-11T05:01:20.399Z,12.63
2023-03-11T05:02:51.849Z,14.19
2023-03-11T05:04:23.240Z,12.74
2023-03-11T05:05:54.611Z,13.33
2023-03-11T05:07:25.904Z,14.57
2023-03-11T05:08:57.181Z,14.19
2023-03-11T05:10:30.174Z,12.40
2023-03-11T05:12:02.966Z,11.42
2023-03-11T05:13:34.237Z,9.71
2023-03-11T05:15:06.019Z,12.00
2023-03-11T05:16:37.927Z,12.19
2023-03-11T05:18:09.284Z,11.30
2023-03-11T05:19:40.864Z,10.59
2023-03-11T05:21:12.073Z,9.57
2023-03-11T05:22:43.526Z,15.22
2023-03-11T05:24:14.889Z,12.18
2023-03-11T05:25:46.365Z,10.24
2023-03-11T05:27:17.784Z,9.06
2023-03-11T05:28:49.257Z,10.95
2023-03-11T05:30:20.468Z,10.07
2023-03-11T05:31:51.669Z,15.45
2023-03-11T05:33:23.045Z,12.18
2023-03-11T05:34:54.479Z,13.06
2023-03-11T05:36:25.995Z,11.41
2023-03-11T05:37:57.840Z,11.39
2023-03-11T05:39:29.001Z,10.86
2023-03-11T05:41:00.402Z,11.93
2023-03-11T05:42:31.788Z,9.73
2023-03-11T05:44:23.086Z,10.84
2023-03-11T05:45:54.699Z,12.33
2023-03-11T05:47:26.195Z,9.94
2023-03-11T05:48:57.614Z,9.76
2023-03-11T05:50:29.005Z,9.51
2023-03-11T05:52:01.662Z,10.23
2023-03-11T05:53:33.198Z,12.17
2023-03-11T05:55:05.537Z,10.27
2023-03-11T05:56:42.358Z,12.71
2023-03-11T05:58:14.024Z,11.15
2023-03-11T05:59:45.303Z,14.38
2023-03-11T06:01:17.044Z,11.02
2023-03-11T06:02:48.508Z,13.39
2023-03-11T06:04:20.213Z,13.32
2023-03-11T06:05:51.764Z,11.46
2023-03-11T06:07:22.968Z,12.08
2023-03-11T06:08:54.439Z,12.12
2023-03-11T06:10:25.664Z,11.43
2023-03-11T06:11:57.236Z,11.69
2023-03-11T06:13:28.562Z,11.71
2023-03-11T06:15:00.428Z,11.60
2023-03-11T06:16:31.953Z,11.58
2023-03-11T06:18:03.255Z,10.63
2023-03-11T06:19:36.058Z,10.57
2023-03-11T06:21:08.023Z,11.86
2023-03-11T06:22:40.356Z,12.25
2023-03-11T06:24:11.909Z,12.35
2023-03-11T06:25:43.283Z,9.49
2023-03-11T06:27:14.893Z,12.84
2023-03-11T06:28:46.084Z,12.57
2023-03-11T06:30:17.232Z,13.21
2023-03-11T06:31:48.715Z,8.76
2023-03-11T06:33:20.018Z,11.69
2023-03-11T06:34:51.396Z,11.15
2023-03-11T06:36:22.790Z,12.98
2023-03-11T06:37:54.260Z,10.93
2023-03-11T06:39:25.554Z,11.93
2023-03-11T06:40:57.465Z,14.20
2023-03-11T06:42:28.942Z,10.60
2023-03-11T06:44:00.407Z,10.14
2023-03-11T06:45:31.772Z,10.31
2023-03-11T06:47:03.110Z,12.14
2023-03-11T06:48:35.423Z,10.55
2023-03-11T06:50:07.086Z,10.50
2023-03-11T06:51:38.642Z,11.22
2023-03-11T06:53:09.858Z,13.45
2023-03-11T06:54:41.069Z,12.92
2023-03-11T06:56:12.597Z,8.50
2023-03-11T06:57:43.780Z,8.42
2023-03-11T06:59:15.139Z,10.93
2023-03-11T07:00:46.520Z,10.65
2023-03-11T07:02:17.851Z,12.02
2023-03-11T07:03:49.500Z,13.54
2023-03-11T07:05:21.228Z,11.00
2023-03-11T07:06:53.089Z,13.14
2023-03-11T07:08:24.616Z,10.31
2023-03-11T07:09:56.307Z,12.28
2023-03-11T07:11:28.277Z,11.02
2023-03-11T07:12:59.977Z,9.38
2023-03-11T07:14:31.415Z,10.62
2023-03-11T07:16:02.728Z,11.24
2023-03-11T07:17:33.895Z,9.52
2023-03-11T07:19:05.237Z,11.15
2023-03-11T07:20:36.651Z,10.25
2023-03-11T07:22:08.234Z,11.78
2023-03-11T07:23:40.050Z,20.44
2023-03-11T07:25:11.328Z,31.18
2023-03-11T07:26:44.475Z,24.42
2023-03-11T07:28:16.054Z,12.46
2023-03-11T07:29:47.426Z,9.86
2023-03-11T07:31:18.993Z,14.08
2023-03-11T07:32:50.271Z,13.74
2023-03-11T07:34:21.645Z,14.57
2023-03-11T07:35:52.979Z,12.37
2023-03-11T07:37:24.138Z,11.67
2023-03-11T07:38:55.985Z,11.10
2023-03-11T07:40:27.622Z,12.47
2023-03-11T07:41:59.184Z,12.86
2023-03-11T07:43:30.533Z,11.95
2023-03-11T07:45:02.078Z,12.61
2023-03-11T07:46:33.459Z,14.45
2023-03-11T07:48:04.730Z,12.97
2023-03-11T07:49:36.004Z,16.78
2023-03-11T07:51:07.437Z,14.14
2023-03-11T07:52:38.936Z,11.42
2023-03-11T07:54:10.508Z,11.37
2023-03-11T07:55:41.737Z,14.99
2023-03-11T07:57:13.179Z,15.81
2023-03-11T07:58:45.818Z,13.39
2023-03-11T08:00:22.348Z,14.78
2023-03-11T08:01:53.794Z,11.53
2023-03-11T08:03:47.767Z,15.26
2023-03-11T08:05:24.859Z,13.00
2023-03-11T08:06:56.645Z,13.26
2023-03-11T08:08:28.338Z,9.04
2023-03-11T08:10:24.991Z,13.33
2023-03-11T08:11:57.088Z,12.89
2023-03-11T08:13:28.918Z,13.54
2023-03-11T08:15:22.663Z,11.06
2023-03-11T08:16:54.457Z,11.78
2023-03-11T08:18:31.340Z,13.17
2023-03-11T08:20:03.695Z,12.32
2023-03-11T08:21:35.734Z,11.16
2023-03-11T08:23:07.599Z,13.17
2023-03-11T08:24:39.234Z,10.73
2023-03-11T08:26:10.954Z,13.70
2023-03-11T08:27:42.915Z,13.40
2023-03-11T08:29:15.030Z,11.08
2023-03-11T08:30:47.384Z,13.57
2023-03-11T08:32:19.773Z,11.61
2023-03-11T08:33:52.116Z,11.36
2023-03-11T08:35:24.546Z,7.36
2023-03-11T08:36:56.353Z,10.11
2023-03-11T08:38:28.507Z,10.05
2023-03-11T08:40:05.618Z,8.62
2023-03-11T08:41:37.494Z,12.47
2023-03-11T08:43:14.438Z,11.76
2023-03-11T08:44:46.321Z,10.16
2023-03-11T08:46:18.107Z,9.31
2023-03-11T08:48:18.856Z,8.62
2023-03-11T08:49:50.767Z,7.56
2023-03-11T08:51:22.326Z,5.98
2023-03-11T08:52:54.301Z,5.16
2023-03-11T08:56:50.392Z,11.37
2023-03-11T08:58:21.774Z,8.25
2023-03-11T08:59:58.292Z,7.00
2023-03-11T09:01:29.869Z,9.48
2023-03-11T09:03:01.750Z,10.22
2023-03-11T09:04:33.866Z,8.75
2023-03-11T09:06:05.975Z,7.56
2023-03-11T09:07:47.496Z,7.16
2023-03-11T09:09:19.604Z,6.30
2023-03-11T09:10:51.595Z,4.24
2023-03-11T09:12:23.575Z,9.40
2023-03-11T09:13:54.822Z,8.77
2023-03-11T09:15:26.119Z,7.09
2023-03-11T09:16:57.322Z,9.64
2023-03-11T09:18:28.709Z,8.16
2023-03-11T09:20:00.008Z,8.05
2023-03-11T09:21:31.245Z,9.27
2023-03-11T09:25:12.367Z,6.42
2023-03-11T09:26:44.337Z,4.90
2023-03-11T09:28:15.960Z,5.79
2023-03-11T09:29:48.269Z,6.51
2023-03-11T09:31:20.211Z,6.97
2023-03-11T09:32:52.178Z,7.08
2023-03-11T09:34:23.583Z,5.41
2023-03-11T09:35:55.192Z,5.76
2023-03-11T09:37:26.611Z,5.50
2023-03-11T09:38:58.033Z,6.64
2023-03-11T09:40:31.684Z,7.79
2023-03-11T09:42:33.172Z,6.46
2023-03-11T09:44:04.705Z,4.64
2023-03-11T09:45:36.006Z,7.28
2023-03-11T09:47:07.470Z,4.24
2023-03-11T09:48:39.014Z,4.67
2023-03-11T09:50:10.679Z,4.50
2023-03-11T09:51:41.990Z,5.39
2023-03-11T09:53:13.532Z,7.46
2023-03-11T09:54:46.361Z,3.49
2023-03-11T09:56:18.140Z,4.99
2023-03-11T09:57:49.916Z,5.43
2023-03-11T09:59:21.504Z,6.95
2023-03-11T10:00:53.417Z,6.91
2023-03-11T10:02:25.219Z,6.07
2023-03-11T10:03:56.678Z,6.00
2023-03-11T10:05:27.960Z,6.21
2023-03-11T10:07:09.304Z,6.94
2023-03-11T10:08:41.501Z,5.65
2023-03-11T10:10:13.140Z,5.69
2023-03-11T10:11:44.902Z,5.03
2023-03-11T10:13:16.333Z,4.87
2023-03-11T10:14:47.514Z,6.70
2023-03-11T10:16:23.922Z,6.09
2023-03-11T10:17:55.585Z,6.39
2023-03-11T10:19:27.060Z,5.38
2023-03-11T10:20:58.461Z,5.58
2023-03-11T10:22:29.762Z,4.95
2023-03-11T10:24:01.057Z,5.72
2023-03-11T10:25:32.574Z,6.10
2023-03-11T10:27:04.086Z,7.18
2023-03-11T10:28:35.395Z,6.17
2023-03-11T10:30:06.693Z,7.84
2023-03-11T10:31:38.034Z,6.43
2023-03-11T10:33:09.702Z,7.57
2023-03-11T10:34:41.617Z,5.38
2023-03-11T10:36:13.043Z,5.99
2023-03-11T10:37:49.651Z,7.18
2023-03-11T10:39:21.577Z,6.46
2023-03-11T10:40:53.361Z,6.76
2023-03-11T10:42:25.533Z,5.04
2023-03-11T10:43:57.970Z,7.99
2023-03-11T10:45:29.353Z,7.75
2023-03-11T10:47:01.227Z,5.12
2023-03-11T10:48:32.936Z,3.98
2023-03-11T10:50:04.635Z,6.17
2023-03-11T10:51:36.010Z,5.96
2023-03-11T10:53:07.580Z,6.41
2023-03-11T10:54:39.360Z,4.57
2023-03-11T10:56:10.814Z,8.35
2023-03-11T10:57:42.314Z,5.62
2023-03-11T10:59:13.707Z,5.70
2023-03-11T11:00:45.242Z,6.26
2023-03-11T11:02:16.578Z,7.70
2023-03-11T11:03:48.044Z,6.72
2023-03-11T11:05:19.503Z,6.79
2023-03-11T11:06:50.804Z,5.22
2023-03-11T11:08:22.182Z,4.98
2023-03-11T11:09:53.394Z,5.31
2023-03-11T11:11:24.737Z,7.33
2023-03-11T11:12:56.123Z,7.86
2023-03-11T11:14:27.450Z,4.70
2023-03-11T11:15:58.736Z,6.61
2023-03-11T11:17:30.170Z,8.69
2023-03-11T11:19:01.648Z,7.07
2023-03-11T11:20:32.911Z,5.23
2023-03-11T11:22:04.256Z,7.21
2023-03-11T11:23:35.740Z,6.60
2023-03-11T11:25:07.058Z,4.36
2023-03-11T11:26:38.428Z,5.22
2023-03-11T11:28:10.314Z,7.60
2023-03-11T11:29:41.644Z,5.65
2023-03-11T11:31:12.916Z,4.22
2023-03-11T11:32:44.298Z,3.56
2023-03-11T11:34:17.075Z,4.84
2023-03-11T11:35:48.513Z,5.34
2023-03-11T11:37:19.845Z,9.01
2023-03-11T11:38:51.294Z,9.14
2023-03-11T11:40:22.572Z,9.46
2023-03-11T11:41:54.342Z,9.68
2023-03-11T11:43:26.173Z,8.32
2023-03-11T11:44:57.788Z,7.40
2023-03-11T11:46:29.074Z,6.31
2023-03-11T11:48:00.606Z,6.52
2023-03-11T11:49:31.950Z,4.92
2023-03-11T11:51:03.401Z,5.33
2023-03-11T11:52:34.721Z,4.24
2023-03-11T11:54:06.133Z,4.83
2023-03-11T11:55:37.341Z,4.88
2023-03-11T11:57:08.799Z,4.37
2023-03-11T11:58:40.097Z,5.04
2023-03-11T12:00:11.352Z,6.39
2023-03-11T12:01:42.708Z,6.38
2023-03-11T12:03:14.184Z,5.71
2023-03-11T12:04:45.799Z,5.63
2023-03-11T12:06:17.125Z,4.70
2023-03-11T12:07:49.750Z,4.50
2023-03-11T12:09:21.708Z,4.71
2023-03-11T12:10:53.242Z,4.90
2023-03-11T12:12:24.733Z,6.62
2023-03-11T12:13:56.687Z,4.93
2023-03-11T12:15:28.027Z,5.97
2023-03-11T12:16:59.898Z,6.60
2023-03-11T12:18:32.344Z,4.82
2023-03-11T12:20:03.775Z,5.69
2023-03-11T12:21:35.082Z,4.84
2023-03-11T12:23:06.354Z,4.75
2023-03-11T12:24:37.716Z,4.29
2023-03-11T12:26:09.096Z,4.80
2023-03-11T12:27:40.656Z,5.24
2023-03-11T12:29:14.362Z,6.35
2023-03-11T12:30:47.325Z,4.85
2023-03-11T12:32:19.044Z,5.98
2023-03-11T12:33:50.404Z,5.42
2023-03-11T12:35:21.682Z,6.04
2023-03-11T12:36:52.974Z,5.49
2023-03-11T12:38:24.273Z,4.62
2023-03-11T12:39:55.749Z,4.38
2023-03-11T12:41:27.550Z,5.11
2023-03-11T12:42:58.833Z,4.33
2023-03-11T12:44:30.204Z,4.38
2023-03-11T12:46:01.602Z,6.60
2023-03-11T12:47:35.551Z,6.18
2023-03-11T12:49:07.055Z,4.71
2023-03-11T12:50:38.378Z,6.18
2023-03-11T12:52:09.807Z,5.75
2023-03-11T12:53:41.327Z,4.82
2023-03-11T12:55:12.822Z,4.97
2023-03-11T12:56:44.121Z,5.81
2023-03-11T12:58:22.150Z,4.38
2023-03-11T12:59:55.030Z,4.60
2023-03-11T13:01:26.666Z,4.72
2023-03-11T13:02:58.089Z,4.06
2023-03-11T13:04:29.502Z,4.50
2023-03-11T13:06:01.530Z,4.07
2023-03-11T13:07:32.902Z,3.78
2023-03-11T13:09:04.382Z,6.70
2023-03-11T13:10:35.967Z,5.82
2023-03-11T13:12:07.253Z,4.93
2023-03-11T13:13:39.110Z,4.05
2023-03-11T13:15:10.509Z,5.66
2023-03-11T13:16:41.955Z,4.51
2023-03-11T13:18:13.499Z,5.00
2023-03-11T13:19:44.914Z,7.57
2023-03-11T13:21:16.270Z,5.79
2023-03-11T13:22:47.584Z,5.78
2023-03-11T13:24:23.917Z,4.32
2023-03-11T13:26:05.256Z,5.59
2023-03-11T13:27:36.525Z,5.92
2023-03-11T13:29:08.063Z,4.06
2023-03-11T13:30:39.460Z,4.13
2023-03-11T13:32:12.710Z,5.49
2023-03-11T13:33:44.153Z,5.94
2023-03-11T13:35:25.593Z,5.19
2023-03-11T13:36:56.937Z,6.71
2023-03-11T13:38:28.285Z,6.32
2023-03-11T13:39:59.667Z,5.31
2023-03-11T13:41:31.139Z,2.86
2023-03-11T13:43:03.979Z,4.30
2023-03-11T13:44:35.525Z,5.78
2023-03-11T13:46:07.068Z,4.66
2023-03-11T13:47:38.487Z,5.32
2023-03-11T13:49:15.169Z,4.81
2023-03-11T13:50:46.494Z,4.91
2023-03-11T13:52:17.909Z,6.41
2023-03-11T13:53:49.547Z,6.10
2023-03-11T13:55:21.054Z,3.56
2023-03-11T13:56:52.416Z,4.73
2023-03-11T13:58:23.727Z,6.75
2023-03-11T13:59:55.244Z,5.50
2023-03-11T14:01:27.228Z,5.22
2023-03-11T14:02:58.561Z,4.70
2023-03-11T14:04:30.097Z,6.04
2023-03-11T14:06:01.548Z,5.05
2023-03-11T14:07:33.136Z,4.78
2023-03-11T14:09:04.367Z,6.00
2023-03-11T14:10:35.693Z,3.34
2023-03-11T14:12:06.977Z,3.08
2023-03-11T14:13:38.402Z,4.70
2023-03-11T14:15:09.640Z,3.61
2023-03-11T14:16:41.224Z,3.77
2023-03-11T14:18:12.605Z,5.52
2023-03-11T14:19:44.113Z,4.33
2023-03-11T14:21:15.570Z,4.28
2023-03-11T14:22:47.159Z,5.63
2023-03-11T14:24:18.531Z,5.53
2023-03-11T14:25:50.399Z,5.48
2023-03-11T14:27:21.685Z,4.74
2023-03-11T14:28:53.942Z,4.01
2023-03-11T14:30:25.438Z,4.52
2023-03-11T14:31:57.316Z,5.92
2023-03-11T14:33:29.478Z,5.73
2023-03-11T14:35:00.763Z,6.62
2023-03-11T14:36:32.073Z,3.66
2023-03-11T14:38:03.301Z,6.22
2023-03-11T14:39:35.011Z,6.65
2023-03-11T14:41:06.234Z,6.66
2023-03-11T14:42:37.541Z,5.52
2023-03-11T14:44:08.809Z,4.77
2023-03-11T14:45:40.326Z,5.50
2023-03-11T14:47:11.666Z,5.47
2023-03-11T14:48:43.359Z,4.78
2023-03-11T14:50:15.068Z,6.20
2023-03-11T14:51:46.346Z,5.22
2023-03-11T14:53:17.892Z,5.30
2023-03-11T14:54:49.306Z,4.20
2023-03-11T14:56:20.534Z,3.81
2023-03-11T14:57:51.958Z,4.77
2023-03-11T14:59:23.305Z,5.02
2023-03-11T15:00:54.932Z,6.38
2023-03-11T15:02:26.301Z,4.06
2023-03-11T15:04:08.484Z,7.18
2023-03-11T15:05:39.903Z,5.20
2023-03-11T15:07:11.340Z,5.82
2023-03-11T15:08:42.606Z,5.67
2023-03-11T15:10:14.118Z,4.66
2023-03-11T15:11:45.524Z,4.77
2023-03-11T15:13:17.031Z,5.00
2023-03-11T15:14:48.313Z,5.09
2023-03-11T15:16:19.639Z,6.29
2023-03-11T15:17:50.873Z,5.81
2023-03-11T15:19:22.309Z,6.73
2023-03-11T15:20:53.797Z,5.62
2023-03-11T15:22:25.240Z,4.51
2023-03-11T15:23:56.726Z,4.38
2023-03-11T15:25:28.069Z,5.99
2023-03-11T15:26:59.904Z,6.03
2023-03-11T15:28:31.537Z,6.15
2023-03-11T15:30:02.855Z,6.46
2023-03-11T15:31:34.194Z,4.41
2023-03-11T15:33:05.516Z,6.05
2023-03-11T15:34:38.622Z,5.92
2023-03-11T15:36:09.884Z,5.59
2023-03-11T15:37:41.278Z,6.14
2023-03-11T15:39:12.557Z,4.63
2023-03-11T15:40:45.669Z,5.76
2023-03-11T15:42:17.308Z,6.26
2023-03-11T15:43:48.707Z,6.08
2023-03-11T15:45:19.949Z,6.48
2023-03-11T15:46:51.455Z,6.88
2023-03-11T15:48:22.846Z,5.54
2023-03-11T15:49:54.224Z,6.27
2023-03-11T15:51:25.613Z,5.60
2023-03-11T15:52:57.187Z,5.14
2023-03-11T15:54:28.523Z,5.04
2023-03-11T15:56:06.856Z,6.73
2023-03-11T15:57:38.870Z,4.85
2023-03-11T15:59:10.408Z,8.47
2023-03-11T16:00:41.725Z,5.62
2023-03-11T16:02:12.967Z,8.07
2023-03-11T16:03:44.680Z,4.60
2023-03-11T16:05:16.227Z,7.41
2023-03-11T16:06:53.941Z,6.06
2023-03-11T16:08:34.392Z,7.63
2023-03-11T16:10:06.012Z,6.85
2023-03-11T16:11:37.491Z,6.83
2023-03-11T16:13:08.824Z,4.96
2023-03-11T16:14:40.336Z,6.71
2023-03-11T16:16:11.724Z,5.88
2023-03-11T16:17:49.749Z,5.51
2023-03-11T16:19:21.646Z,5.79
2023-03-11T16:20:53.047Z,5.73
2023-03-11T16:22:26.288Z,7.06
2023-03-11T16:23:57.844Z,7.23
2023-03-11T16:25:29.603Z,5.94
2023-03-11T16:27:00.912Z,6.13
2023-03-11T16:28:32.454Z,5.03
2023-03-11T16:30:04.389Z,6.28
2023-03-11T16:31:35.943Z,7.00
2023-03-11T16:33:12.391Z,7.17
2023-03-11T16:34:43.698Z,6.27
2023-03-11T16:36:15.102Z,5.49
2023-03-11T16:37:46.407Z,6.86
2023-03-11T16:39:17.649Z,6.81
2023-03-11T16:40:49.042Z,6.60
2023-03-11T16:42:20.435Z,6.17
2023-03-11T16:43:51.773Z,6.64
2023-03-11T16:45:23.050Z,7.32
2023-03-11T16:46:54.434Z,8.56
2023-03-11T16:48:26.148Z,7.73
2023-03-11T16:49:57.341Z,8.81
2023-03-11T16:51:28.628Z,6.84
2023-03-11T16:53:00.160Z,6.18
2023-03-11T16:54:31.381Z,5.31
2023-03-11T16:56:02.784Z,9.08
2023-03-11T16:57:34.121Z,8.19
2023-03-11T16:59:05.480Z,6.66
2023-03-11T17:00:36.869Z,8.28
2023-03-11T17:02:08.279Z,6.65
2023-03-11T17:03:42.787Z,7.07
2023-03-11T17:05:14.490Z,7.37
2023-03-11T17:06:45.788Z,9.21
2023-03-11T17:08:17.041Z,8.16
2023-03-11T17:09:48.509Z,7.44
2023-03-11T17:11:19.911Z,8.39
2023-03-11T17:12:51.239Z,9.07
2023-03-11T17:14:22.641Z,6.88
2023-03-11T17:15:53.951Z,9.01
2023-03-11T17:17:25.472Z,6.32
2023-03-11T17:18:56.731Z,7.01
2023-03-11T17:20:28.024Z,8.10
2023-03-11T17:21:59.264Z,6.73
2023-03-11T17:23:30.531Z,8.37
2023-03-11T17:25:01.746Z,7.76
2023-03-11T17:26:33.142Z,8.85
2023-03-11T17:28:04.476Z,10.78
2023-03-11T17:29:35.837Z,11.00
2023-03-11T17:31:32.343Z,8.76
2023-03-11T17:33:04.497Z,8.61
2023-03-11T17:34:35.999Z,10.52
2023-03-11T17:36:07.263Z,8.59
2023-03-11T17:37:43.908Z,9.95
2023-03-11T17:39:15.196Z,8.16
2023-03-11T17:40:46.478Z,8.22
2023-03-11T17:42:17.707Z,10.55
2023-03-11T17:43:51.359Z,12.39
2023-03-11T17:45:23.283Z,8.44
2023-03-11T17:46:55.884Z,10.70
2023-03-11T17:48:27.268Z,10.34
2023-03-11T17:49:58.569Z,7.80
2023-03-11T17:51:29.869Z,7.53
2023-03-11T17:53:01.519Z,9.23
2023-03-11T17:54:32.747Z,9.16
2023-03-11T17:56:04.183Z,8.56
2023-03-11T17:57:44.775Z,7.62
2023-03-11T17:59:17.969Z,7.83
2023-03-11T18:00:49.386Z,13.31
2023-03-11T18:02:20.748Z,12.46
2023-03-11T18:03:52.297Z,38.37
2023-03-11T18:05:23.696Z,69.06
2023-03-11T18:06:55.265Z,58.65
2023-03-11T18:08:26.943Z,66.76
2023-03-11T18:09:58.255Z,81.42
2023-03-11T18:11:29.768Z,58.81
2023-03-11T18:13:01.243Z,25.65
2023-03-11T18:14:32.551Z,26.82
2023-03-11T18:16:03.918Z,23.95
2023-03-11T18:17:46.148Z,18.16
2023-03-11T18:19:18.481Z,15.91
2023-03-11T18:21:04.719Z,14.40
2023-03-11T18:22:38.573Z,11.42
2023-03-11T18:24:11.269Z,14.95
2023-03-11T18:25:42.597Z,14.90
2023-03-11T18:28:03.080Z,11.64
2023-03-11T18:29:36.269Z,15.28
2023-03-11T18:31:18.145Z,15.04
2023-03-11T18:32:49.921Z,11.51
2023-03-11T18:34:42.790Z,12.09
2023-03-11T18:36:14.639Z,11.18
2023-03-11T18:37:46.262Z,11.43
2023-03-11T18:39:19.022Z,13.30
2023-03-11T18:40:50.515Z,12.43
2023-03-11T18:44:41.367Z,13.48
2023-03-11T18:46:13.733Z,14.73
2023-03-11T18:47:45.482Z,12.22
2023-03-11T18:49:22.511Z,12.75
2023-03-11T18:50:54.385Z,15.27
2023-03-11T18:52:26.047Z,13.59
2023-03-11T18:53:58.129Z,12.77
2023-03-11T18:55:29.944Z,15.01
2023-03-11T18:57:02.163Z,14.64
2023-03-11T18:58:34.112Z,11.38
2023-03-11T19:00:07.893Z,12.82
2023-03-11T19:01:39.787Z,13.94
2023-03-11T19:03:11.632Z,16.13
2023-03-11T19:04:44.135Z,15.73
2023-03-11T19:06:16.265Z,14.63
2023-03-11T19:07:49.970Z,13.77
2023-03-11T19:09:49.240Z,14.00
2023-03-11T19:11:21.082Z,14.55
2023-03-11T19:12:52.844Z,15.43
2023-03-11T19:14:24.290Z,14.99
2023-03-11T19:15:55.789Z,14.74
2023-03-11T19:17:27.553Z,18.64
2023-03-11T19:18:58.716Z,20.46
2023-03-11T19:20:29.974Z,21.38
2023-03-11T19:22:01.698Z,17.25
2023-03-11T19:23:32.924Z,17.83
2023-03-11T19:25:04.160Z,18.67
2023-03-11T19:26:44.324Z,14.34
2023-03-11T19:28:16.595Z,15.28
2023-03-11T19:29:47.914Z,17.43
2023-03-11T19:31:19.329Z,15.94
2023-03-11T19:32:50.771Z,20.64
2023-03-11T19:34:22.390Z,22.40
2023-03-11T19:35:53.584Z,25.27
2023-03-11T19:37:24.874Z,24.45
2023-03-11T19:38:56.305Z,20.35
2023-03-11T19:40:27.592Z,18.45
2023-03-11T19:41:59.002Z,16.26
2023-03-11T19:43:30.362Z,16.02
2023-03-11T19:45:02.210Z,15.84
2023-03-11T19:46:33.777Z,14.65
2023-03-11T19:48:05.158Z,13.01
2023-03-11T19:49:36.469Z,14.84
2023-03-11T19:51:07.772Z,15.54
2023-03-11T19:52:39.134Z,14.82
2023-03-11T19:54:10.384Z,16.79
2023-03-11T19:55:41.536Z,19.71
2023-03-11T19:57:13.082Z,19.34
2023-03-11T19:58:44.551Z,23.36
2023-03-11T20:00:21.197Z,20.70
2023-03-11T20:01:52.696Z,15.60
2023-03-11T20:05:33.985Z,14.60
2023-03-11T20:08:57.634Z,15.58
2023-03-11T20:10:38.958Z,17.92
2023-03-11T20:12:10.088Z,17.16
2023-03-11T20:13:41.494Z,17.15
2023-03-11T20:15:12.735Z,15.80
2023-03-11T20:16:43.984Z,17.43
2023-03-11T20:18:15.335Z,18.18
2023-03-11T20:19:46.584Z,20.06
2023-03-11T20:21:17.813Z,15.54
2023-03-11T20:22:49.185Z,21.22
2023-03-11T20:24:20.761Z,22.03
2023-03-11T20:25:52.052Z,21.50
2023-03-11T20:27:23.248Z,21.80